This is the latest recevied weather packets stored in our database for station/object N0OQA. If no packets are shown the sender has not sent any weather packets the latest 10 day(s).
| Time | Temp. | Humidity | Pressure | Rain* | Wind** | Luminosity | Snow |
|---|---|---|---|---|---|---|---|
| 1777751512 | 17.78° C | 34% | 1015.3 hPa | 0 mm | - | - | - |
| 1777747908 | 17.22° C | 34% | 1016.7 hPa | 0 mm | - | - | - |
| 1777726588 | 4.44° C | 74% | 1020.7 hPa | 0 mm | - | - | - |
| 1777726287 | 3.89° C | 76% | 1020.8 hPa | 0 mm | - | - | - |
| 1777724784 | 2.22° C | 82% | 1020.6 hPa | 0 mm | - | - | - |
| 1777724484 | 2.22° C | 80% | 1020.8 hPa | 0 mm | - | - | - |
| 1777724184 | 2.22° C | 80% | 1020.7 hPa | 0 mm | - | - | - |
| 1777723883 | 2.22° C | 80% | 1020.7 hPa | 0 mm | - | - | - |
| 1777722681 | 2.22° C | 81% | 1020.6 hPa | 0 mm | - | - | - |
| 1777722381 | 1.67° C | 82% | 1020.6 hPa | 0 mm | - | - | - |
| 1777722081 | 1.67° C | 83% | 1020.6 hPa | 0 mm | - | - | - |
| 1777721780 | 1.11° C | 85% | 1020.6 hPa | 0 mm | - | - | - |
| 1777720879 | 0.56° C | 87% | 1020.6 hPa | 0 mm | - | - | - |
| 1777720579 | 0.56° C | 88% | 1020.6 hPa | 0 mm | - | - | - |
| 1777720279 | 0.56° C | 88% | 1020.6 hPa | 0 mm | - | - | - |
| 1777719978 | 0.56° C | 88% | 1020.6 hPa | 0 mm | - | - | - |
| 1777719378 | 0.56° C | 89% | 1020.5 hPa | 0 mm | - | - | - |
| 1777719078 | 0.56° C | 89% | 1020.5 hPa | 0 mm | - | - | - |
| 1777718777 | 0.56° C | 90% | 1020.5 hPa | 0 mm | - | - | - |
| 1777717877 | 0° C | 92% | 1020.5 hPa | 0 mm | - | - | - |
| 1777717276 | 0.56° C | 92% | 1020.5 hPa | 0 mm | - | - | - |
| 1777716675 | 0.56° C | 91% | 1020.4 hPa | 0 mm | - | - | - |
| 1777716375 | 0.56° C | 91% | 1020.5 hPa | 0 mm | - | - | - |
| 1777716075 | 0.56° C | 90% | 1020.4 hPa | 0 mm | - | - | - |
| 1777715774 | 0.56° C | 89% | 1020.4 hPa | 0 mm | - | - | - |
* Rain since midnight (hover to see other rain measurements)
** Current wind speed in m/s (hover to see current wind gust speed)